KTEB/TEB METAR and TAF weather

Enter ICAO airport designator
Station Type Date Time Source
KTEB METAR 2020/07/12 01:51 UTC NOAA

KTEB 120151Z 00000KT 10SM CLR 24/22 A2965 RMK AO2 SLP040 T02390222 $


Station Type Date Time Source
KTEB Decoded METAR 2020/07/12 01:51 UTC NOAA

TETERBORO AIRPORT, NJ, United States (KTEB) 40-52N 74-03W 7M
Jul 11, 2020 - 09:51 PM EDT / 2020.07.12 0151 UTC
Wind: Calm:0
Visibility: 10 mile(s):0
Sky conditions: clear
Temperature: 75.0 F (23.9 C)
Dew Point: 72.0 F (22.2 C)
Relative Humidity: 90%
Pressure (altimeter): 29.65 in. Hg (1004 hPa)
ob: KTEB 120151Z 00000KT 10SM CLR 24/22 A2965 RMK AO2 SLP040 T02390222
cycle: 2

Station Type Date Time Source
KTEB TAF 2020/07/12 00:06 UTC NOAA

TAF
AMD KTEB 120003Z 1200/1306 18008KT P6SM VCSH SCT050
TEMPO 1200/1201 2SM TSRA BR SCT020CB BKN035
FM120300 23007KT P6SM FEW050
FM120900 26007KT P6SM SCT050
FM121600 25010G17KT P6SM SCT050
FM122300 23006KT P6SM FEW050

Example: see airport list